Terminal Aerodrome Forecast
Issued by NWS

Home | Current Version | Previous Version | Graphics & Text | Print | Product List | Glossary Off
Versions: 1 2 3 4 5 6 7 8 9 10 11 12 13 14 15 16 17 18 19 20 21 22 23

757
FTUS43 KMPX 231733
TAFAXN
TAF
KAXN 231733Z 2318/2418 30006KT P6SM BKN012 OVC020
     FM232200 24004KT P6SM OVC020
     FM240200 19004KT P6SM OVC015
     FM241000 10008KT 1SM BR OVC005
     FM241500 09008KT 3SM BR OVC008=

USA.gov is the U.S. government's official web portal to all federal, state and local government web resources and services.